createdAt,value
2023-05-06T00:00:58.250Z,101070.47
2023-05-06T00:03:25.912Z,101072.31
2023-05-06T00:05:53.652Z,101075.75
2023-05-06T00:08:21.362Z,101068.84
2023-05-06T00:10:48.800Z,101074.09
2023-05-06T00:13:16.626Z,101072.28
2023-05-06T00:15:44.352Z,101080.16
2023-05-06T00:18:11.946Z,101072.31
2023-05-06T00:20:39.416Z,101077.59
2023-05-06T00:23:06.857Z,101075.91
2023-05-06T00:25:34.275Z,101075.84
2023-05-06T00:28:01.802Z,101078.56
2023-05-06T00:30:29.597Z,101068.84
2023-05-06T00:32:57.288Z,101071.47
2023-05-06T00:35:24.904Z,101067.94
2023-05-06T00:38:08.532Z,101069.66
2023-05-06T00:40:36.604Z,101060.13
2023-05-06T00:43:04.519Z,101061.84
2023-05-06T00:45:32.192Z,101061.81
2023-05-06T00:48:00.302Z,101059.16
2023-05-06T00:50:29.840Z,101050.34
2023-05-06T00:52:58.647Z,101047.72
2023-05-06T00:55:26.467Z,101042.59
2023-05-06T00:57:54.745Z,101036.38
2023-05-06T01:00:22.554Z,101039.91
2023-05-06T01:02:50.176Z,101036.38
2023-05-06T01:05:21.216Z,101035.50
2023-05-06T01:08:13.385Z,101029.38
2023-05-06T01:10:56.960Z,101025.94
2023-05-06T01:13:34.651Z,101021.56
2023-05-06T01:16:04.263Z,101025.13
2023-05-06T01:18:32.910Z,101018.09
2023-05-06T01:21:02.041Z,101021.63
2023-05-06T01:23:29.514Z,101014.56
2023-05-06T01:25:57.151Z,101013.69
2023-05-06T01:28:24.530Z,101018.94
2023-05-06T01:31:05.676Z,101020.72
2023-05-06T01:33:48.574Z,101013.66
2023-05-06T01:36:46.907Z,101009.25
2023-05-06T01:39:20.546Z,101001.44
2023-05-06T01:41:50.375Z,101006.69
2023-05-06T01:44:21.653Z,100997.84
2023-05-06T01:46:50.258Z,100998.75
2023-05-06T01:49:20.369Z,101000.50
2023-05-06T01:51:52.651Z,100990.88
2023-05-06T01:54:20.301Z,100986.50
2023-05-06T01:56:47.829Z,100990.00
2023-05-06T01:59:15.879Z,100982.97
2023-05-06T02:01:43.426Z,100993.53
2023-05-06T02:04:11.163Z,100994.38
2023-05-06T02:06:38.862Z,100989.13
2023-05-06T02:09:06.639Z,100980.34
2023-05-06T02:11:39.344Z,100984.75
2023-05-06T02:14:08.404Z,100986.50
2023-05-06T02:16:36.928Z,100977.69
2023-05-06T02:19:06.089Z,100976.88
2023-05-06T02:21:33.534Z,100976.00
2023-05-06T02:24:01.057Z,100982.97
2023-05-06T02:26:28.493Z,100978.63
2023-05-06T02:28:56.070Z,100983.00
2023-05-06T02:31:23.723Z,100984.75
2023-05-06T02:33:51.339Z,100993.59
2023-05-06T02:36:18.758Z,100993.50
2023-05-06T02:38:47.609Z,100983.88
2023-05-06T02:41:15.223Z,100990.03
2023-05-06T02:43:42.692Z,100978.59
2023-05-06T02:46:10.196Z,100976.94
2023-05-06T02:48:37.732Z,100975.16
2023-05-06T02:51:06.299Z,100966.34
2023-05-06T02:53:33.986Z,100975.16
2023-05-06T02:56:01.420Z,100977.81
2023-05-06T02:58:29.341Z,100966.41
2023-05-06T03:00:56.867Z,100959.41
2023-05-06T03:03:24.434Z,100968.19
2023-05-06T03:05:51.804Z,100961.19
2023-05-06T03:08:19.538Z,100953.28
2023-05-06T03:10:47.197Z,100943.66
2023-05-06T03:13:17.649Z,100946.22
2023-05-06T03:15:45.266Z,100947.09
2023-05-06T03:18:12.719Z,100950.63
2023-05-06T03:20:40.761Z,100946.28
2023-05-06T03:23:08.319Z,100950.72
2023-05-06T03:25:35.946Z,100951.50
2023-05-06T03:28:03.582Z,100946.31
2023-05-06T03:30:32.440Z,100947.19
2023-05-06T03:33:02.783Z,100942.75
2023-05-06T03:35:33.550Z,100939.25
2023-05-06T03:38:01.919Z,100942.75
2023-05-06T03:40:37.935Z,100954.19
2023-05-06T03:43:05.917Z,100942.84
2023-05-06T03:45:33.774Z,100955.06
2023-05-06T03:48:03.921Z,100961.25
2023-05-06T03:50:33.333Z,100958.69
2023-05-06T03:53:00.950Z,100965.69
2023-05-06T03:55:31.137Z,100951.63
2023-05-06T03:57:58.892Z,100953.38
2023-05-06T04:00:26.577Z,100942.84
2023-05-06T04:02:55.075Z,100942.03
2023-05-06T04:05:29.396Z,100938.47
2023-05-06T04:07:58.034Z,100944.59
2023-05-06T04:10:25.606Z,100941.13
2023-05-06T04:12:56.287Z,100941.13
2023-05-06T04:15:32.080Z,100938.53
2023-05-06T04:18:01.691Z,100934.16
2023-05-06T04:20:29.869Z,100940.28
2023-05-06T04:22:57.589Z,100938.53
2023-05-06T04:25:26.014Z,100935.06
2023-05-06T04:27:53.562Z,100949.06
2023-05-06T04:30:21.592Z,100936.84
2023-05-06T04:32:50.620Z,100941.16
2023-05-06T04:35:18.160Z,100945.53
2023-05-06T04:37:45.929Z,100942.03
2023-05-06T04:40:19.692Z,100940.28
2023-05-06T04:42:49.691Z,100942.03
2023-05-06T04:45:22.424Z,100946.44
2023-05-06T04:47:52.460Z,100943.78
2023-05-06T04:50:20.421Z,100944.72
2023-05-06T04:52:48.031Z,100947.34
2023-05-06T04:55:17.542Z,100942.06
2023-05-06T04:57:48.970Z,100950.78
2023-05-06T05:00:17.559Z,100952.56
2023-05-06T05:02:45.159Z,100957.84
2023-05-06T05:05:14.592Z,100945.56
2023-05-06T05:07:45.117Z,100942.94
2023-05-06T05:10:12.821Z,100955.19
2023-05-06T05:12:40.376Z,100951.69
2023-05-06T05:15:08.498Z,100939.38
2023-05-06T05:17:36.259Z,100940.19
2023-05-06T05:20:05.836Z,100935.84
2023-05-06T05:22:33.437Z,100924.41
2023-05-06T05:25:01.550Z,100924.41
2023-05-06T05:27:29.323Z,100933.22
2023-05-06T05:29:58.059Z,100941.09
2023-05-06T05:32:25.682Z,100937.59
2023-05-06T05:34:53.327Z,100941.97
2023-05-06T05:37:20.972Z,100935.78
2023-05-06T05:39:49.385Z,100948.06
2023-05-06T05:42:18.135Z,100948.94
2023-05-06T05:44:47.203Z,100944.56
2023-05-06T05:47:15.780Z,100945.34
2023-05-06T05:49:43.378Z,100954.09
2023-05-06T05:52:10.890Z,100956.63
2023-05-06T05:54:38.715Z,100950.47
2023-05-06T05:57:06.853Z,100949.53
2023-05-06T05:59:34.812Z,100956.44
2023-05-06T06:02:05.897Z,100958.19
2023-05-06T06:04:34.091Z,100966.97
2023-05-06T06:07:04.693Z,100969.56
2023-05-06T06:09:36.324Z,100961.66
2023-05-06T06:12:05.412Z,100969.50
2023-05-06T06:14:34.911Z,100966.84
2023-05-06T06:17:02.686Z,100964.16
2023-05-06T06:19:30.507Z,100957.19
2023-05-06T06:21:58.163Z,100959.81
2023-05-06T06:24:26.505Z,100949.22
2023-05-06T06:26:54.454Z,100954.47
2023-05-06T06:29:21.870Z,100954.38
2023-05-06T06:31:49.559Z,100956.06
2023-05-06T06:34:20.162Z,100958.72
2023-05-06T06:36:48.000Z,100960.56
2023-05-06T06:39:15.760Z,100967.50
2023-05-06T06:41:43.546Z,100965.75
2023-05-06T06:44:12.657Z,100966.63
2023-05-06T06:46:52.137Z,100959.50
2023-05-06T06:49:29.103Z,100955.78
2023-05-06T06:52:00.674Z,100962.72
2023-05-06T06:54:28.116Z,100964.50
2023-05-06T06:56:58.597Z,100958.28
2023-05-06T06:59:26.103Z,100960.72
2023-05-06T07:01:53.496Z,100953.56
2023-05-06T07:04:21.269Z,100960.47
2023-05-06T07:06:48.884Z,100961.13
2023-05-06T07:09:16.507Z,100957.41
2023-05-06T07:11:43.897Z,100962.59
2023-05-06T07:14:12.060Z,100959.03
2023-05-06T07:16:39.474Z,100965.75
2023-05-06T07:19:07.397Z,100965.72
2023-05-06T07:21:35.041Z,100970.72
2023-05-06T07:24:02.596Z,100975.03
2023-05-06T07:26:30.008Z,100974.03
2023-05-06T07:28:57.586Z,100976.50
2023-05-06T07:31:25.223Z,100979.31
2023-05-06T07:33:52.793Z,100979.47
2023-05-06T07:36:20.340Z,100980.63
2023-05-06T07:38:47.890Z,100983.38
2023-05-06T07:41:15.407Z,100984.44
2023-05-06T07:43:42.868Z,100992.53
2023-05-06T07:46:11.001Z,100989.03
2023-05-06T07:48:38.762Z,100990.09
2023-05-06T07:51:06.231Z,100986.66
2023-05-06T07:53:33.868Z,100992.91
2023-05-06T07:56:02.633Z,101004.41
2023-05-06T07:58:31.603Z,100999.06
2023-05-06T08:01:00.037Z,100992.13
2023-05-06T08:03:27.877Z,100996.50
2023-05-06T08:05:55.957Z,100995.69
2023-05-06T08:08:24.017Z,100993.00
2023-05-06T08:10:51.498Z,101000.19
2023-05-06T08:13:19.084Z,100987.81
2023-05-06T08:15:46.790Z,100993.19
2023-05-06T08:18:22.191Z,100997.56
2023-05-06T08:20:51.005Z,100996.75
2023-05-06T08:23:18.641Z,100993.28
2023-05-06T08:25:46.703Z,100991.53
2023-05-06T08:28:14.156Z,100997.69
2023-05-06T08:30:41.578Z,100995.94
2023-05-06T08:33:09.124Z,101002.81
2023-05-06T08:35:36.891Z,101006.53
2023-05-06T08:38:04.369Z,101004.84
2023-05-06T08:40:33.862Z,101004.00
2023-05-06T08:43:04.207Z,101008.44
2023-05-06T08:45:33.087Z,101002.31
2023-05-06T08:48:00.697Z,101009.25
2023-05-06T08:50:28.617Z,101009.13
2023-05-06T08:52:56.112Z,101002.97
2023-05-06T08:55:26.630Z,101001.78
2023-05-06T08:57:54.935Z,100995.53
2023-05-06T09:00:22.465Z,100999.72
2023-05-06T09:02:50.132Z,101009.19
2023-05-06T09:05:17.798Z,101002.06
2023-05-06T09:07:52.390Z,101012.59
2023-05-06T09:10:22.728Z,101008.25
2023-05-06T09:12:53.645Z,101002.16
2023-05-06T09:15:25.997Z,101007.44
2023-05-06T09:17:55.506Z,100997.97
2023-05-06T09:20:23.218Z,100992.69
2023-05-06T09:22:54.087Z,100997.97
2023-05-06T09:25:21.580Z,101002.41
2023-05-06T09:27:48.965Z,100994.56
2023-05-06T09:30:16.635Z,100997.28
2023-05-06T09:32:44.321Z,101002.47
2023-05-06T09:35:12.029Z,101002.44
2023-05-06T09:37:39.648Z,100999.63
2023-05-06T09:40:09.366Z,100989.97
2023-05-06T09:42:37.011Z,100980.16
2023-05-06T09:45:08.923Z,100986.19
2023-05-06T09:47:36.733Z,100976.31
2023-05-06T09:50:04.911Z,100977.88
2023-05-06T09:52:32.405Z,100987.47
2023-05-06T09:55:01.610Z,100980.28
2023-05-06T09:57:31.172Z,100988.97
2023-05-06T10:00:00.634Z,100984.41
2023-05-06T10:02:29.172Z,100983.38
2023-05-06T10:04:57.511Z,100989.28
2023-05-06T10:07:28.907Z,100979.97
2023-05-06T10:09:59.066Z,100976.50
2023-05-06T10:12:26.746Z,100977.34
2023-05-06T10:14:54.637Z,100970.59
2023-05-06T10:17:26.024Z,100971.63
2023-05-06T10:19:58.959Z,100969.31
2023-05-06T10:22:49.349Z,100972.41
2023-05-06T10:25:22.349Z,100977.97
2023-05-06T10:27:50.354Z,100971.28
2023-05-06T10:30:19.721Z,100970.81
2023-05-06T10:32:47.397Z,100973.69
2023-05-06T10:35:32.766Z,100975.25
2023-05-06T10:38:03.242Z,100970.06
2023-05-06T10:40:31.883Z,100977.38
2023-05-06T10:43:34.748Z,100967.75
2023-05-06T10:46:12.105Z,100969.88
2023-05-06T10:49:01.240Z,100952.84
2023-05-06T10:51:29.148Z,100954.75
2023-05-06T10:54:02.828Z,100949.47
2023-05-06T10:56:33.467Z,100951.47
2023-05-06T10:59:12.429Z,100951.13
2023-05-06T11:01:41.961Z,100957.03
2023-05-06T11:04:11.518Z,100963.28
2023-05-06T11:06:46.642Z,100956.13
2023-05-06T11:09:20.638Z,100956.31
2023-05-06T11:11:51.099Z,100947.44
2023-05-06T11:14:29.798Z,100949.69
2023-05-06T11:17:01.615Z,100950.44
2023-05-06T11:19:33.986Z,100945.38
2023-05-06T11:22:04.043Z,100942.97
2023-05-06T11:24:39.064Z,100953.91
2023-05-06T11:27:07.217Z,100944.94
2023-05-06T11:29:34.616Z,100937.44
2023-05-06T11:32:03.804Z,100933.31
2023-05-06T11:34:32.732Z,100930.41
2023-05-06T11:37:05.781Z,100932.00
2023-05-06T11:39:39.665Z,100936.09
2023-05-06T11:42:09.331Z,100931.31
2023-05-06T11:44:38.810Z,100926.13
2023-05-06T11:47:08.944Z,100932.63
2023-05-06T11:49:36.941Z,100929.97
2023-05-06T11:52:04.699Z,100923.94
2023-05-06T11:54:36.237Z,100923.53
2023-05-06T11:57:03.877Z,100918.59
2023-05-06T11:59:32.616Z,100916.16
2023-05-06T12:02:02.477Z,100916.09
2023-05-06T12:04:46.530Z,100917.34
2023-05-06T12:07:15.526Z,100921.88
2023-05-06T12:09:50.653Z,100918.66
2023-05-06T12:12:22.666Z,100922.06
2023-05-06T12:14:52.696Z,100931.91
2023-05-06T12:17:20.421Z,100937.63
2023-05-06T12:19:48.261Z,100939.81
2023-05-06T12:22:20.743Z,100934.72
2023-05-06T12:24:49.411Z,100935.16
2023-05-06T12:27:33.813Z,100945.44
2023-05-06T12:30:02.723Z,100942.03
2023-05-06T12:32:31.250Z,100935.53
2023-05-06T12:35:00.628Z,100944.16
2023-05-06T12:37:30.006Z,100941.81
2023-05-06T12:39:59.341Z,100946.66
2023-05-06T12:42:27.620Z,100931.94
2023-05-06T12:44:56.479Z,100942.88
2023-05-06T12:47:25.896Z,100940.28
2023-05-06T12:49:59.179Z,100950.69
2023-05-06T12:52:29.988Z,100932.72
2023-05-06T12:55:00.850Z,100930.72
2023-05-06T12:57:28.238Z,100935.28
2023-05-06T12:59:56.533Z,100931.97
2023-05-06T13:02:24.092Z,100931.63
2023-05-06T13:04:51.741Z,100938.94
2023-05-06T13:07:19.227Z,100932.13
2023-05-06T13:09:46.818Z,100926.16
2023-05-06T13:12:14.295Z,100932.84
2023-05-06T13:14:41.744Z,100930.53
2023-05-06T13:17:09.361Z,100922.91
2023-05-06T13:19:37.360Z,100921.22
2023-05-06T13:22:04.948Z,100922.03
2023-05-06T13:24:32.603Z,100933.69
2023-05-06T13:27:01.465Z,100933.16
2023-05-06T13:29:29.811Z,100932.66
2023-05-06T13:31:57.782Z,100931.00
2023-05-06T13:34:26.127Z,100923.13
2023-05-06T13:36:54.878Z,100925.84
2023-05-06T13:39:23.160Z,100923.22
2023-05-06T13:41:51.299Z,100922.25
2023-05-06T13:44:22.108Z,100925.66
2023-05-06T13:46:49.723Z,100921.03
2023-05-06T13:49:18.684Z,100923.53
2023-05-06T13:51:46.242Z,100928.88
2023-05-06T13:54:13.674Z,100921.13
2023-05-06T13:56:41.305Z,100922.34
2023-05-06T13:59:10.103Z,100920.75
2023-05-06T14:01:38.773Z,100928.09
2023-05-06T14:04:06.362Z,100909.22
2023-05-06T14:06:34.107Z,100913.06
2023-05-06T14:09:01.757Z,100919.59
2023-05-06T14:11:29.331Z,100902.41
2023-05-06T14:13:57.430Z,100896.50
2023-05-06T14:16:25.028Z,100897.34
2023-05-06T14:18:52.830Z,100897.38
2023-05-06T14:21:20.403Z,100892.41
2023-05-06T14:23:47.781Z,100900.63
2023-05-06T14:26:15.361Z,100899.88
2023-05-06T14:28:42.739Z,100913.22
2023-05-06T14:31:10.341Z,100924.66
2023-05-06T14:33:38.750Z,100925.53
2023-05-06T14:36:06.710Z,100912.50
2023-05-06T14:38:34.234Z,100903.16
2023-05-06T14:41:01.741Z,100902.25
2023-05-06T14:43:29.160Z,100898.31
2023-05-06T14:45:56.875Z,100900.16
2023-05-06T14:48:25.524Z,100895.56
2023-05-06T14:50:53.228Z,100900.31
2023-05-06T14:53:20.698Z,100890.84
2023-05-06T14:55:49.009Z,100882.88
2023-05-06T14:58:16.475Z,100882.06
2023-05-06T15:00:44.988Z,100882.16
2023-05-06T15:03:12.548Z,100884.06
2023-05-06T15:05:40.242Z,100881.38
2023-05-06T15:08:07.811Z,100877.03
2023-05-06T15:10:35.293Z,100868.03
2023-05-06T15:13:03.059Z,100864.03
2023-05-06T15:15:30.831Z,100858.25
2023-05-06T15:17:58.366Z,100864.03
2023-05-06T15:20:26.219Z,100867.03
2023-05-06T15:22:53.650Z,100871.97
2023-05-06T15:25:34.243Z,100869.75
2023-05-06T15:28:05.106Z,100866.38
2023-05-06T15:30:32.747Z,100872.94
2023-05-06T15:33:01.856Z,100870.75
2023-05-06T15:35:31.134Z,100865.94
2023-05-06T15:37:59.228Z,100860.81
2023-05-06T15:40:27.213Z,100866.13
2023-05-06T15:42:55.321Z,100860.78
2023-05-06T15:45:22.859Z,100866.13
2023-05-06T15:47:50.403Z,100862.78
2023-05-06T15:50:32.529Z,100863.88
2023-05-06T15:53:02.241Z,100861.44
2023-05-06T15:55:34.595Z,100870.34
2023-05-06T15:58:08.894Z,100868.31
2023-05-06T16:00:36.432Z,100869.16
2023-05-06T16:03:04.149Z,100863.88
2023-05-06T16:05:32.043Z,100862.81
2023-05-06T16:07:59.825Z,100855.69
2023-05-06T16:10:27.303Z,100867.16
2023-05-06T16:12:54.880Z,100861.03
2023-05-06T16:15:22.341Z,100871.75
2023-05-06T16:17:49.896Z,100861.94
2023-05-06T16:20:17.520Z,100854.91
2023-05-06T16:22:50.440Z,100863.84
2023-05-06T16:25:17.901Z,100857.91
2023-05-06T16:27:45.404Z,100860.66
2023-05-06T16:30:13.304Z,100858.00
2023-05-06T16:32:40.759Z,100853.88
2023-05-06T16:35:09.553Z,100859.25
2023-05-06T16:37:37.115Z,100853.13
2023-05-06T16:40:05.056Z,100855.69
2023-05-06T16:42:32.519Z,100849.69
2023-05-06T16:45:00.134Z,100848.69
2023-05-06T16:47:27.825Z,100846.03
2023-05-06T16:49:55.748Z,100844.25
2023-05-06T16:52:23.338Z,100844.09
2023-05-06T16:54:51.460Z,100839.44
2023-05-06T16:57:19.274Z,100836.00
2023-05-06T16:59:46.754Z,100841.44
2023-05-06T17:02:14.301Z,100830.25
2023-05-06T17:04:41.829Z,100839.38
2023-05-06T17:07:11.291Z,100836.00
2023-05-06T17:09:39.304Z,100841.53
2023-05-06T17:12:07.954Z,100833.81
2023-05-06T17:14:35.810Z,100835.06
2023-05-06T17:17:05.442Z,100835.22
2023-05-06T17:19:33.793Z,100827.91
2023-05-06T17:22:01.238Z,100830.78
2023-05-06T17:24:28.788Z,100840.63
2023-05-06T17:26:56.311Z,100831.84
2023-05-06T17:29:23.956Z,100834.03
2023-05-06T17:31:51.562Z,100833.38
2023-05-06T17:34:19.186Z,100829.91
2023-05-06T17:36:46.652Z,100830.84
2023-05-06T17:39:14.371Z,100832.03
2023-05-06T17:41:41.802Z,100826.00
2023-05-06T17:44:09.324Z,100821.78
2023-05-06T17:46:37.119Z,100833.31
2023-05-06T17:49:04.646Z,100824.59
2023-05-06T17:51:32.133Z,100827.31
2023-05-06T17:53:59.744Z,100827.44
2023-05-06T17:56:27.327Z,100825.63
2023-05-06T17:58:55.084Z,100827.28
2023-05-06T18:01:22.647Z,100824.72
2023-05-06T18:03:50.290Z,100836.78
2023-05-06T18:06:18.786Z,100833.41
2023-05-06T18:08:46.361Z,100841.38
2023-05-06T18:11:13.792Z,100836.25
2023-05-06T18:13:41.353Z,100841.47
2023-05-06T18:16:08.968Z,100845.06
2023-05-06T18:18:36.831Z,100850.50
2023-05-06T18:21:04.266Z,100844.53
2023-05-06T18:23:32.009Z,100850.03
2023-05-06T18:25:59.549Z,100840.25
2023-05-06T18:28:27.130Z,100846.69
2023-05-06T18:30:54.593Z,100849.41
2023-05-06T18:33:22.301Z,100846.72
2023-05-06T18:35:49.786Z,100853.13
2023-05-06T18:38:17.251Z,100845.94
2023-05-06T18:40:47.434Z,100837.09
2023-05-06T18:43:14.865Z,100829.34
2023-05-06T18:45:43.013Z,100839.84
2023-05-06T18:48:10.986Z,100840.78
2023-05-06T18:50:38.590Z,100835.50
2023-05-06T18:53:06.110Z,100835.56
2023-05-06T18:55:33.707Z,100838.19
2023-05-06T18:58:05.710Z,100840.03
2023-05-06T19:00:33.514Z,100842.47
2023-05-06T19:03:01.198Z,100851.41
2023-05-06T19:05:28.765Z,100852.31
2023-05-06T19:07:56.238Z,100854.97
2023-05-06T19:10:23.889Z,100857.69
2023-05-06T19:12:51.629Z,100862.16
2023-05-06T19:15:19.261Z,100858.69
2023-05-06T19:17:46.618Z,100854.44
2023-05-06T19:20:14.495Z,100850.03
2023-05-06T19:22:42.162Z,100859.88
2023-05-06T19:25:10.629Z,100859.19
2023-05-06T19:27:38.599Z,100865.41
2023-05-06T19:30:07.414Z,100854.03
2023-05-06T19:32:34.886Z,100860.28
2023-05-06T19:35:08.164Z,100870.91
2023-05-06T19:37:42.348Z,100877.16
2023-05-06T19:40:10.873Z,100883.31
2023-05-06T19:42:38.312Z,100882.53
2023-05-06T19:45:09.467Z,100886.13
2023-05-06T19:47:37.492Z,100889.72
2023-05-06T19:50:06.266Z,100900.31
2023-05-06T19:52:34.781Z,100898.63
2023-05-06T19:55:03.343Z,100897.88
2023-05-06T19:57:31.052Z,100898.66
2023-05-06T19:59:58.475Z,100901.38
2023-05-06T20:02:26.449Z,100904.13
2023-05-06T20:04:54.028Z,100907.72
2023-05-06T20:07:23.000Z,100911.22
2023-05-06T20:09:55.274Z,100912.28
2023-05-06T20:12:23.704Z,100919.47
2023-05-06T20:14:51.456Z,100921.31
2023-05-06T20:17:19.085Z,100922.28
2023-05-06T20:19:46.885Z,100919.78
2023-05-06T20:22:14.813Z,100925.09
2023-05-06T20:24:43.127Z,100926.06
2023-05-06T20:27:10.929Z,100925.28
2023-05-06T20:29:38.295Z,100930.59
2023-05-06T20:32:05.864Z,100941.19
2023-05-06T20:34:33.419Z,100939.44
2023-05-06T20:37:01.670Z,100940.38
2023-05-06T20:39:29.146Z,100950.06
2023-05-06T20:41:56.766Z,100947.47
2023-05-06T20:44:25.123Z,100958.84
2023-05-06T20:46:52.885Z,100964.13
2023-05-06T20:49:20.416Z,100967.66
2023-05-06T20:51:48.024Z,100966.78
2023-05-06T20:54:15.559Z,100957.16
2023-05-06T20:56:43.087Z,100963.44
2023-05-06T20:59:10.961Z,100967.03
2023-05-06T21:01:38.663Z,100965.34
2023-05-06T21:04:06.479Z,100962.81
2023-05-06T21:06:34.094Z,100959.34
2023-05-06T21:09:01.493Z,100970.75
2023-05-06T21:11:29.113Z,100973.34
2023-05-06T21:13:57.905Z,100979.44
2023-05-06T21:16:25.770Z,100976.88
2023-05-06T21:18:53.420Z,100983.84
2023-05-06T21:21:24.542Z,100987.50
2023-05-06T21:23:52.092Z,100992.81
2023-05-06T21:26:19.578Z,100991.13
2023-05-06T21:28:51.378Z,100990.25
2023-05-06T21:31:26.605Z,100988.47
2023-05-06T21:33:55.903Z,100983.22
2023-05-06T21:36:23.640Z,100981.47
2023-05-06T21:39:17.677Z,100975.41
2023-05-06T21:41:45.580Z,100987.72
2023-05-06T21:44:13.220Z,100986.84
2023-05-06T21:46:41.200Z,100988.59
2023-05-06T21:49:08.607Z,100993.81
2023-05-06T21:51:36.976Z,100995.50
2023-05-06T21:54:04.637Z,100996.31
2023-05-06T21:56:32.148Z,101003.28
2023-05-06T21:58:59.705Z,101005.88
2023-05-06T22:01:27.417Z,101002.31
2023-05-06T22:03:55.317Z,101002.31
2023-05-06T22:06:23.130Z,101004.94
2023-05-06T22:08:50.600Z,101006.69
2023-05-06T22:11:18.313Z,101012.78
2023-05-06T22:13:45.779Z,101004.09
2023-05-06T22:16:13.391Z,101017.25
2023-05-06T22:18:41.669Z,101014.59
2023-05-06T22:21:09.953Z,101016.31
2023-05-06T22:23:40.598Z,101020.66
2023-05-06T22:26:08.213Z,101023.28
2023-05-06T22:28:36.098Z,101027.56
2023-05-06T22:31:03.748Z,101026.75
2023-05-06T22:33:31.327Z,101027.56
2023-05-06T22:35:58.933Z,101027.56
2023-05-06T22:38:26.399Z,101026.88
2023-05-06T22:40:53.957Z,101036.56
2023-05-06T22:43:21.506Z,101030.47
2023-05-06T22:45:49.113Z,101034.81
2023-05-06T22:48:16.733Z,101035.72
2023-05-06T22:50:44.284Z,101031.31
2023-05-06T22:53:15.399Z,101032.22
2023-05-06T22:55:43.127Z,101026.91
2023-05-06T22:58:10.507Z,101032.19
2023-05-06T23:00:38.114Z,101030.44
2023-05-06T23:03:06.129Z,101039.22
2023-05-06T23:05:33.704Z,101030.31
2023-05-06T23:08:01.204Z,101038.25
2023-05-06T23:10:28.680Z,101031.28
2023-05-06T23:13:01.614Z,101036.59
2023-05-06T23:15:29.573Z,101037.44
2023-05-06T23:17:57.118Z,101047.97
2023-05-06T23:20:24.838Z,101044.41
2023-05-06T23:22:52.660Z,101047.16
2023-05-06T23:25:20.374Z,101045.31
2023-05-06T23:27:47.900Z,101045.34
2023-05-06T23:30:15.717Z,101045.28
2023-05-06T23:32:43.144Z,101050.69
2023-05-06T23:35:11.306Z,101043.69
2023-05-06T23:37:38.913Z,101045.41
2023-05-06T23:40:07.336Z,101048.88
2023-05-06T23:42:34.821Z,101044.53
2023-05-06T23:45:02.328Z,101053.38
2023-05-06T23:47:29.863Z,101053.38
2023-05-06T23:49:58.901Z,101051.53
2023-05-06T23:52:26.906Z,101055.91
2023-05-06T23:54:54.496Z,101058.53
2023-05-06T23:57:21.887Z,101048.94
2023-05-06T23:59:49.475Z,101050.66
